Time;durP1;ratioP1;P1;durP2;ratioP2;P2;SDS_P1;SDS_P2;PMS_P1;PMS_P2;Temp;Humidity;BMP_temperature;BMP_pressure;BME280_temperature;BME280_humidity;BME280_pressure;Samples;Min_cycle;Max_cycle;Signal;HPM_P1;HPM_P2
2022/06/21 00:00:46;;;;;;;0.80;0.80;;;;;;;22.76;nan;94731.88;4968462;28;20251;-65
2022/06/21 00:03:17;;;;;;;0.70;0.70;;;;;;;22.63;nan;94743.66;4951774;28;20204;-64
2022/06/21 00:05:48;;;;;;;0.93;0.73;;;;;;;22.68;nan;94746.09;4953583;28;20236;-64
2022/06/21 00:08:22;;;;;;;0.50;0.50;;;;;;;22.86;nan;94736.75;4966376;28;20207;-64
2022/06/21 00:10:51;;;;;;;1.37;1.27;;;;;;;22.87;nan;94732.97;4943659;28;20196;-65
2022/06/21 00:13:22;;;;;;;1.03;0.60;;;;;;;22.80;nan;94735.44;4943351;28;20253;-64
2022/06/21 00:15:54;;;;;;;0.50;0.50;;;;;;;22.83;nan;94726.75;4943132;28;20199;-65
2022/06/21 00:18:24;;;;;;;0.80;0.80;;;;;;;22.80;nan;94730.09;4943099;28;20196;-63
2022/06/21 00:20:52;;;;;;;0.60;0.50;;;;;;;22.73;nan;94711.19;4953834;28;20241;-67
2022/06/21 00:23:22;;;;;;;0.43;0.43;;;;;;;23.14;nan;94732.25;4952403;28;20204;-63
2022/06/21 00:25:50;;;;;;;0.60;0.60;;;;;;;23.20;nan;94734.69;4955747;28;20254;-66
2022/06/21 00:28:19;;;;;;;1.13;0.67;;;;;;;23.24;nan;94735.56;4960678;28;20204;-62
2022/06/21 00:30:47;;;;;;;0.43;0.40;;;;;;;23.29;nan;94727.31;4965149;28;20573;-65
2022/06/21 00:33:18;;;;;;;0.40;0.40;;;;;;;22.76;nan;94737.22;4951604;29;20195;-63
2022/06/21 00:35:48;;;;;;;0.70;0.70;;;;;;;22.94;nan;94722.50;4951692;28;20259;-65
2022/06/21 00:38:25;;;;;;;0.50;0.50;;;;;;;22.75;nan;94719.63;4951600;28;20207;-64
2022/06/21 00:40:56;;;;;;;0.60;0.60;;;;;;;22.49;nan;94729.84;4949644;28;20239;-62
2022/06/21 00:43:28;;;;;;;0.57;0.57;;;;;;;22.44;nan;94714.06;4940955;28;20194;-67
2022/06/21 00:45:55;;;;;;;1.27;1.00;;;;;;;22.56;nan;94722.09;4958236;28;20195;-67
2022/06/21 00:48:31;;;;;;;0.77;0.77;;;;;;;22.22;nan;94727.84;4957733;28;20188;-63
2022/06/21 00:51:08;;;;;;;0.37;0.37;;;;;;;22.16;nan;94729.16;4938637;28;20211;-64
2022/06/21 00:53:40;;;;;;;0.67;0.53;;;;;;;22.28;nan;94739.06;4951114;28;20620;-64
2022/06/21 00:56:19;;;;;;;0.70;0.70;;;;;;;21.92;nan;94729.09;4951814;28;20271;-66
2022/06/21 00:58:46;;;;;;;0.90;0.90;;;;;;;22.21;nan;94736.19;4951681;28;20218;-63
2022/06/21 01:01:27;;;;;;;0.53;0.53;;;;;;;22.52;nan;94723.03;4964375;28;20323;-66
2022/06/21 01:04:16;;;;;;;0.87;0.63;;;;;;;22.79;nan;94735.78;4947110;28;20246;-62
2022/06/21 01:06:47;;;;;;;0.57;0.57;;;;;;;23.05;nan;94734.28;4946556;28;20554;-64
2022/06/21 01:09:45;;;;;;;0.77;0.30;;;;;;;22.65;nan;94720.09;4946431;28;20205;-65
2022/06/21 01:12:18;;;;;;;0.60;0.50;;;;;;;22.85;nan;94716.50;4946589;28;20207;-62
2022/06/21 01:14:55;;;;;;;0.80;0.80;;;;;;;22.99;nan;94724.94;4946777;28;20224;-63
2022/06/21 01:17:23;;;;;;;0.67;0.67;;;;;;;22.90;nan;94718.19;4953079;28;20580;-64
2022/06/21 01:19:56;;;;;;;1.10;0.50;;;;;;;22.98;nan;94720.72;4955007;28;20736;-62
2022/06/21 01:22:34;;;;;;;0.93;0.93;;;;;;;22.83;nan;94720.59;4957328;28;20190;-64
2022/06/21 01:25:38;;;;;;;0.60;0.50;;;;;;;22.79;nan;94725.84;4964064;28;20236;-64
2022/06/21 01:28:06;;;;;;;0.83;0.53;;;;;;;22.81;nan;94723.63;4952111;28;20198;-62
2022/06/21 01:30:34;;;;;;;0.20;0.20;;;;;;;22.74;nan;94728.75;4954733;28;20204;-61
2022/06/21 01:33:01;;;;;;;0.47;0.47;;;;;;;22.83;nan;94729.41;4941441;28;20196;-63
2022/06/21 01:35:37;;;;;;;0.77;0.57;;;;;;;22.87;nan;94726.84;4954498;28;20711;-62
2022/06/21 01:38:08;;;;;;;0.33;0.33;;;;;;;22.53;nan;94733.41;4948764;28;20212;-63
2022/06/21 01:40:42;;;;;;;0.67;0.67;;;;;;;22.51;nan;94734.84;4947781;29;20211;-62
2022/06/21 01:43:12;;;;;;;0.70;0.70;;;;;;;22.46;nan;94740.41;4954129;28;20226;-62
2022/06/21 01:45:44;;;;;;;0.40;0.40;;;;;;;22.62;nan;94736.78;4958597;28;20853;-62
2022/06/21 01:48:16;;;;;;;3.33;1.67;;;;;;;22.58;nan;94746.56;4962477;28;20534;-62
2022/06/21 01:50:47;;;;;;;1.03;0.90;;;;;;;22.57;nan;94736.97;4954171;28;20638;-62
2022/06/21 01:53:16;;;;;;;0.57;0.57;;;;;;;22.42;nan;94739.53;4954549;28;20207;-62
2022/06/21 01:55:49;;;;;;;0.87;0.50;;;;;;;22.20;nan;94740.72;4954452;28;20215;-63
2022/06/21 01:58:23;;;;;;;1.33;0.60;;;;;;;22.23;nan;94739.25;4954431;28;20207;-64
2022/06/21 02:00:57;;;;;;;0.73;0.73;;;;;;;22.33;nan;94739.63;4964069;28;20208;-62
2022/06/21 02:03:30;;;;;;;0.77;0.73;;;;;;;22.52;nan;94731.84;4949171;28;20263;-61
2022/06/21 02:06:02;;;;;;;0.63;0.60;;;;;;;22.35;nan;94736.63;4945824;28;20854;-62
2022/06/21 02:08:38;;;;;;;0.40;0.40;;;;;;;22.48;nan;94738.97;4945934;28;20261;-61
2022/06/21 02:11:11;;;;;;;0.27;0.27;;;;;;;22.52;nan;94742.53;4948746;28;20199;-62
2022/06/21 02:13:44;;;;;;;0.67;0.30;;;;;;;22.22;nan;94743.84;4953551;28;20596;-63
2022/06/21 02:16:17;;;;;;;0.50;0.50;;;;;;;22.11;nan;94737.38;4953833;28;20259;-61
2022/06/21 02:18:52;;;;;;;0.50;0.50;;;;;;;22.15;nan;94739.03;4953627;28;20196;-64
2022/06/21 02:21:36;;;;;;;1.00;0.73;;;;;;;22.24;nan;94746.97;4953733;28;20730;-60
2022/06/21 02:24:04;;;;;;;0.20;0.20;;;;;;;22.23;nan;94736.59;4954061;28;20836;-62
2022/06/21 02:26:33;;;;;;;0.53;0.53;;;;;;;22.21;nan;94739.59;4953598;28;20267;-62
2022/06/21 02:29:01;;;;;;;0.37;0.27;;;;;;;22.05;nan;94728.00;4953571;28;20254;-62
2022/06/21 02:31:28;;;;;;;0.30;0.30;;;;;;;21.96;nan;94735.34;4939971;28;20184;-62
2022/06/21 02:33:59;;;;;;;0.40;0.40;;;;;;;21.96;nan;94730.78;4963803;28;20199;-62
2022/06/21 02:36:34;;;;;;;0.37;0.37;;;;;;;22.03;nan;94731.03;4952798;28;20195;-62
2022/06/21 02:39:05;;;;;;;0.33;0.23;;;;;;;22.23;nan;94726.72;4953395;29;20601;-62
2022/06/21 02:41:41;;;;;;;0.70;0.70;;;;;;;22.41;nan;94709.38;4966897;28;20219;-60
2022/06/21 02:44:30;;;;;;;0.40;0.40;;;;;;;22.28;nan;94713.13;4953414;28;20212;-61
2022/06/21 02:47:05;;;;;;;0.60;0.43;;;;;;;22.14;nan;94726.03;4949390;28;20687;-60
2022/06/21 02:49:38;;;;;;;0.30;0.30;;;;;;;22.21;nan;94726.25;4953421;28;20199;-62
2022/06/21 02:52:22;;;;;;;1.17;0.87;;;;;;;22.30;nan;94718.94;4958806;28;20290;-63
2022/06/21 02:54:56;;;;;;;0.30;0.30;;;;;;;22.30;nan;94726.94;4963572;28;20229;-60
2022/06/21 02:57:30;;;;;;;0.30;0.30;;;;;;;22.29;nan;94728.06;4953264;28;20267;-60
2022/06/21 02:59:58;;;;;;;0.47;0.47;;;;;;;22.02;nan;94724.09;4945348;28;20196;-59
2022/06/21 03:02:29;;;;;;;0.40;0.40;;;;;;;21.72;nan;94719.22;4966207;28;20873;-63
2022/06/21 03:04:59;;;;;;;0.50;0.43;;;;;;;22.12;nan;94701.56;4958279;28;20796;-62
2022/06/21 03:07:32;;;;;;;0.60;0.60;;;;;;;22.30;nan;94718.16;4955389;28;20196;-60
2022/06/21 03:10:00;;;;;;;0.30;0.30;;;;;;;22.10;nan;94717.91;4955905;28;20251;-62
2022/06/21 03:12:30;;;;;;;0.50;0.50;;;;;;;22.02;nan;94718.00;4952811;28;20699;-61
2022/06/21 03:15:02;;;;;;;0.37;0.37;;;;;;;22.01;nan;94716.44;4949324;28;20273;-61
2022/06/21 03:17:45;;;;;;;0.77;0.60;;;;;;;22.07;nan;94720.47;4945095;28;20275;-62
2022/06/21 03:20:15;;;;;;;0.63;0.63;;;;;;;22.06;nan;94717.00;4943979;28;20199;-63
2022/06/21 03:22:44;;;;;;;0.40;0.40;;;;;;;22.12;nan;94712.22;4943555;28;20227;-62
2022/06/21 03:25:54;;;;;;;1.23;0.80;;;;;;;22.14;nan;94699.34;4944503;28;20299;-62
2022/06/21 03:28:35;;;;;;;0.50;0.50;;;;;;;22.00;nan;94702.34;4922827;29;20215;-63
2022/06/21 03:31:09;;;;;;;0.97;0.83;;;;;;;22.30;nan;94708.25;4945675;28;20211;-60
2022/06/21 03:33:41;;;;;;;0.40;0.40;;;;;;;22.31;nan;94693.81;4952637;28;20223;-62
2022/06/21 03:36:11;;;;;;;0.60;0.60;;;;;;;22.51;nan;94708.16;4952504;28;20706;-62
2022/06/21 03:38:43;;;;;;;0.53;0.53;;;;;;;22.37;nan;94708.47;4961480;28;20238;-61
2022/06/21 03:44:03;;;;;;;0.60;0.60;;;;;;;22.67;nan;94720.53;4959501;28;20258;-62
2022/06/21 03:46:41;;;;;;;0.50;0.50;;;;;;;22.46;nan;94722.50;4964225;28;20196;-63
2022/06/21 03:49:34;;;;;;;1.20;0.67;;;;;;;22.30;nan;94718.94;4952447;28;20203;-61
2022/06/21 03:52:11;;;;;;;0.73;0.70;;;;;;;22.20;nan;94730.06;4965421;28;20213;-63
2022/06/21 03:54:47;;;;;;;0.63;0.60;;;;;;;22.19;nan;94736.47;4943282;29;20219;-60
2022/06/21 03:57:23;;;;;;;0.63;0.60;;;;;;;22.39;nan;94705.50;4942759;29;20196;-62
2022/06/21 04:00:00;;;;;;;1.67;1.20;;;;;;;22.42;nan;94732.31;4943838;28;20218;-63
2022/06/21 04:02:47;;;;;;;0.87;0.87;;;;;;;22.28;nan;94737.16;4943605;28;20688;-60
2022/06/21 04:05:34;;;;;;;0.83;0.77;;;;;;;22.43;nan;94739.19;4937950;28;20244;-61
2022/06/21 04:08:35;;;;;;;1.20;1.13;;;;;;;22.46;nan;94733.19;4968419;28;20199;-62
2022/06/21 04:11:14;;;;;;;0.43;0.33;;;;;;;22.71;nan;94724.09;4946834;28;20203;-65
2022/06/21 04:13:47;;;;;;;0.83;0.83;;;;;;;22.45;nan;94722.81;4937488;28;20199;-62
2022/06/21 04:17:09;;;;;;;0.90;0.90;;;;;;;22.70;nan;94711.06;4950996;28;20317;-63
2022/06/21 04:19:48;;;;;;;0.40;0.40;;;;;;;22.68;nan;94722.06;4882303;29;20652;-63
2022/06/21 04:22:38;;;;;;;0.70;0.60;;;;;;;22.41;nan;94725.38;4892259;29;20827;-62
2022/06/21 04:25:16;;;;;;;0.53;0.53;;;;;;;22.22;nan;94722.50;4950516;28;20213;-63
2022/06/21 04:27:50;;;;;;;1.17;0.97;;;;;;;22.34;nan;94713.69;4952646;28;20184;-62
2022/06/21 04:30:26;;;;;;;0.47;0.43;;;;;;;22.52;nan;94721.16;4945264;28;20215;-62
2022/06/21 04:32:56;;;;;;;0.70;0.70;;;;;;;22.50;nan;94712.69;4944806;28;20700;-62
2022/06/21 04:35:50;;;;;;;0.50;0.50;;;;;;;22.90;nan;94704.81;4940420;28;20246;-61
2022/06/21 04:38:25;;;;;;;0.83;0.83;;;;;;;22.76;nan;94699.81;4942194;28;20726;-63
2022/06/21 04:40:59;;;;;;;0.63;0.60;;;;;;;22.75;nan;94692.94;4941326;28;20294;-64
2022/06/21 04:43:36;;;;;;;0.80;0.80;;;;;;;22.67;nan;94693.81;4947476;28;20611;-65
2022/06/21 04:46:12;;;;;;;1.43;0.97;;;;;;;22.73;nan;94684.47;4952968;28;20198;-63
2022/06/21 04:48:39;;;;;;;0.87;0.87;;;;;;;22.69;nan;94699.59;4944662;28;20195;-63
2022/06/21 04:51:21;;;;;;;1.10;0.87;;;;;;;22.55;nan;94709.03;4941967;28;20262;-64
2022/06/21 04:53:55;;;;;;;0.47;0.43;;;;;;;22.31;nan;94704.47;4941572;28;20212;-63
2022/06/21 04:56:40;;;;;;;1.50;1.17;;;;;;;22.44;nan;94705.25;4940225;28;20612;-64
2022/06/21 04:59:24;;;;;;;3.13;2.83;;;;;;;22.86;nan;94702.00;4957533;28;20207;-63
2022/06/21 05:01:52;;;;;;;2.47;1.47;;;;;;;23.16;nan;94715.13;4938641;28;20839;-64
2022/06/21 05:04:22;;;;;;;2.27;1.73;;;;;;;23.36;nan;94720.31;4946832;28;20745;-61
2022/06/21 05:06:51;;;;;;;1.00;1.00;;;;;;;23.41;nan;94722.72;4948317;28;20196;-63
2022/06/21 05:09:20;;;;;;;0.80;0.57;;;;;;;23.45;nan;94726.28;4948501;28;20199;-63
2022/06/21 05:11:57;;;;;;;0.67;0.67;;;;;;;23.66;nan;94726.88;4949325;28;20956;-62
2022/06/21 05:14:29;;;;;;;2.33;1.03;;;;;;;23.55;nan;94725.03;4949202;28;20226;-64
2022/06/21 05:16:56;;;;;;;1.37;0.70;;;;;;;23.58;nan;94730.47;4948816;28;20219;-64
2022/06/21 05:19:30;;;;;;;0.60;0.37;;;;;;;23.41;nan;94719.31;4949002;28;20223;-64
2022/06/21 05:22:04;;;;;;;1.33;1.23;;;;;;;23.29;nan;94738.00;4940446;28;20215;-65
2022/06/21 05:24:32;;;;;;;3.23;2.63;;;;;;;23.44;nan;94734.66;4949549;28;20194;-64
2022/06/21 05:27:17;;;;;;;0.63;0.63;;;;;;;23.39;nan;94738.34;4960114;28;20196;-63
2022/06/21 05:29:51;;;;;;;0.87;0.70;;;;;;;23.16;nan;94741.84;4945448;28;20204;-63
2022/06/21 05:32:22;;;;;;;1.40;1.07;;;;;;;23.37;nan;94726.44;4947773;28;20261;-65
2022/06/21 05:34:56;;;;;;;1.27;1.17;;;;;;;23.19;nan;94730.47;4949187;28;20212;-65
2022/06/21 05:37:32;;;;;;;0.77;0.77;;;;;;;23.40;nan;94733.78;4958173;28;20292;-63
2022/06/21 05:40:05;;;;;;;2.03;1.10;;;;;;;23.87;nan;94726.66;4950980;28;20214;-63
2022/06/21 05:42:32;;;;;;;1.13;0.90;;;;;;;23.76;nan;94725.59;4945235;28;20200;-63
2022/06/21 05:45:14;;;;;;;0.60;0.60;;;;;;;23.67;nan;94730.31;4941555;29;20210;-62
2022/06/21 05:47:51;;;;;;;2.00;0.97;;;;;;;23.90;nan;94720.63;4947315;29;20196;-67
2022/06/21 05:50:22;;;;;;;1.57;1.20;;;;;;;24.22;nan;94716.88;4951690;28;20200;-66
2022/06/21 05:52:55;;;;;;;0.80;0.67;;;;;;;24.85;nan;94713.06;4952405;28;20218;-64
2022/06/21 05:55:32;;;;;;;1.27;0.97;;;;;;;24.84;nan;94714.19;4953375;28;20231;-65
2022/06/21 05:58:04;;;;;;;0.43;0.43;;;;;;;24.38;nan;94715.00;4950780;28;20227;-64
2022/06/21 06:01:03;;;;;;;0.80;0.80;;;;;;;24.29;nan;94717.06;4952001;28;20649;-64
2022/06/21 06:03:44;;;;;;;2.10;1.00;;;;;;;24.92;nan;94723.97;4952228;28;20200;-64
2022/06/21 06:06:19;;;;;;;1.17;0.97;;;;;;;24.98;nan;94706.47;4958331;28;20195;-62
2022/06/21 06:08:54;;;;;;;1.57;1.13;;;;;;;24.75;nan;94713.59;4957345;28;20694;-66
2022/06/21 06:11:25;;;;;;;0.77;0.60;;;;;;;24.93;nan;94709.41;4950647;29;20606;-65
2022/06/21 06:13:55;;;;;;;0.63;0.63;;;;;;;24.83;nan;94720.69;4953726;28;20346;-64
2022/06/21 06:16:21;;;;;;;0.50;0.50;;;;;;;25.03;nan;94719.63;4947045;29;20262;-65
2022/06/21 06:19:10;;;;;;;0.87;0.87;;;;;;;25.20;nan;94725.69;4951254;28;20206;-67
2022/06/21 06:21:45;;;;;;;1.07;0.97;;;;;;;24.99;nan;94721.44;4949816;28;20199;-62
2022/06/21 06:24:29;;;;;;;1.30;1.20;;;;;;;25.03;nan;94718.81;4952144;28;20339;-64
2022/06/21 06:27:00;;;;;;;2.23;2.10;;;;;;;24.82;nan;94729.06;4962387;28;20200;-64
2022/06/21 06:29:39;;;;;;;0.97;0.87;;;;;;;24.73;nan;94725.78;4951390;28;20207;-65
2022/06/21 06:32:25;;;;;;;0.60;0.60;;;;;;;25.18;nan;94736.00;4951865;28;20290;-65
2022/06/21 06:34:54;;;;;;;0.70;0.70;;;;;;;25.03;nan;94724.97;4956531;28;20203;-63
2022/06/21 06:37:36;;;;;;;0.97;0.97;;;;;;;25.07;nan;94723.13;4949908;28;20288;-63
2022/06/21 06:40:16;;;;;;;2.10;1.63;;;;;;;25.96;nan;94728.41;4946819;28;20216;-67
2022/06/21 06:42:45;;;;;;;1.80;1.20;;;;;;;26.10;nan;94717.94;4945524;28;20659;-66
2022/06/21 06:45:17;;;;;;;2.20;1.60;;;;;;;25.58;nan;94725.75;4945847;28;20859;-65
2022/06/21 06:47:49;;;;;;;1.90;0.90;;;;;;;25.79;nan;94720.78;4964536;28;20196;-65
2022/06/21 06:50:35;;;;;;;1.07;0.97;;;;;;;25.63;nan;94730.81;4949302;28;20609;-64
2022/06/21 06:53:14;;;;;;;0.83;0.83;;;;;;;25.63;nan;94720.88;4952441;29;20210;-66
2022/06/21 06:55:54;;;;;;;1.23;0.77;;;;;;;25.59;nan;94725.38;4950578;28;20255;-64
2022/06/21 06:58:42;;;;;;;0.83;0.83;;;;;;;25.55;nan;94718.38;4951615;28;20671;-64
2022/06/21 07:01:20;;;;;;;1.23;1.13;;;;;;;26.25;nan;94713.59;4950125;28;20227;-64
2022/06/21 07:03:52;;;;;;;1.17;0.80;;;;;;;26.58;nan;94717.22;4949500;28;20244;-65
2022/06/21 07:06:31;;;;;;;1.07;0.90;;;;;;;26.78;nan;94705.28;4949348;28;20196;-68
2022/06/21 07:09:10;;;;;;;0.83;0.83;;;;;;;27.02;nan;94702.13;4949987;28;20722;-64
2022/06/21 07:11:37;;;;;;;1.37;1.27;;;;;;;27.13;nan;94698.84;4951206;29;20201;-65
2022/06/21 07:14:11;;;;;;;1.30;0.57;;;;;;;27.31;nan;94699.88;4949424;28;20200;-64
2022/06/21 07:16:39;;;;;;;1.37;1.27;;;;;;;26.89;nan;94705.41;4951397;28;20223;-63
2022/06/21 07:19:08;;;;;;;1.27;1.20;;;;;;;26.63;nan;94703.47;4950324;28;20206;-67
2022/06/21 07:21:36;;;;;;;1.27;1.10;;;;;;;26.76;nan;94702.16;4951174;28;20611;-67
2022/06/21 07:24:10;;;;;;;1.87;1.33;;;;;;;26.81;nan;94699.16;4950264;28;20202;-65
2022/06/21 07:26:46;;;;;;;1.60;1.17;;;;;;;27.22;nan;94697.44;4947422;28;20200;-63
2022/06/21 07:29:20;;;;;;;0.70;0.70;;;;;;;27.69;nan;94694.16;4949428;28;20228;-67
2022/06/21 07:32:22;;;;;;;1.00;1.00;;;;;;;27.37;nan;94698.41;4950856;28;20298;-68
2022/06/21 07:34:52;;;;;;;1.20;1.00;;;;;;;27.43;nan;94699.63;4943969;28;20781;-66
2022/06/21 07:37:37;;;;;;;1.90;1.50;;;;;;;27.62;nan;94694.88;4951703;28;20819;-64
2022/06/21 07:40:32;;;;;;;0.30;0.30;;;;;;;28.01;nan;94694.53;4949901;28;20683;-65
2022/06/21 07:43:14;;;;;;;0.43;0.43;;;;;;;28.31;nan;94698.66;4950493;28;20238;-65
2022/06/21 07:45:47;;;;;;;0.30;0.30;;;;;;;28.12;nan;94695.41;4945653;28;20199;-65
2022/06/21 07:48:20;;;;;;;0.90;0.90;;;;;;;27.93;nan;94701.78;4962721;28;20749;-66
2022/06/21 07:50:55;;;;;;;0.40;0.40;;;;;;;28.15;nan;94700.84;4950178;28;20294;-66
2022/06/21 07:53:28;;;;;;;6.17;1.60;;;;;;;28.24;nan;94709.41;4949087;28;20634;-69
2022/06/21 07:56:04;;;;;;;0.80;0.77;;;;;;;28.46;nan;94704.97;4936375;28;20728;-65
2022/06/21 07:58:39;;;;;;;0.70;0.57;;;;;;;28.74;nan;94727.53;4950350;28;20207;-65
2022/06/21 08:07:20;;;;;;;1.10;1.07;;;;;;;28.59;nan;94711.66;4949569;28;20200;-64
2022/06/21 08:09:57;;;;;;;0.77;0.70;;;;;;;28.52;nan;94709.66;4950575;28;20723;-66
2022/06/21 08:12:24;;;;;;;0.57;0.50;;;;;;;29.21;nan;94712.47;4950820;28;20606;-63
2022/06/21 08:14:52;;;;;;;1.13;0.90;;;;;;;29.08;nan;94711.19;4949518;28;20257;-68
2022/06/21 08:17:38;;;;;;;0.70;0.70;;;;;;;29.49;nan;94709.94;4947328;28;20334;-69
2022/06/21 08:20:13;;;;;;;0.97;0.80;;;;;;;29.08;nan;94713.91;4938976;28;20298;-65
2022/06/21 08:22:46;;;;;;;2.83;1.37;;;;;;;29.05;nan;94710.03;4952511;28;20195;-68
2022/06/21 08:25:18;;;;;;;0.67;0.57;;;;;;;28.75;nan;94704.84;4951879;28;20203;-66
2022/06/21 08:27:48;;;;;;;1.00;0.90;;;;;;;29.57;nan;94719.59;4947375;28;20196;-66
2022/06/21 08:30:21;;;;;;;0.97;0.97;;;;;;;29.67;nan;94713.47;4939679;29;20203;-70
2022/06/21 08:33:06;;;;;;;0.60;0.60;;;;;;;29.37;nan;94718.34;4946907;28;20196;-71
2022/06/21 08:35:39;;;;;;;1.27;1.13;;;;;;;29.70;nan;94723.53;4950158;28;20200;-69
2022/06/21 08:38:13;;;;;;;0.63;0.63;;;;;;;30.16;nan;94729.06;4949877;28;20701;-71
2022/06/21 08:44:48;;;;;;;0.97;0.93;;;;;;;29.92;nan;94720.53;4932526;28;20199;-62
2022/06/21 08:47:28;;;;;;;0.60;0.60;;;;;;;29.97;nan;94710.47;4956243;28;20757;-67
2022/06/21 08:50:14;;;;;;;1.13;0.97;;;;;;;29.74;nan;94724.31;4947393;28;20279;-68
2022/06/21 08:52:42;;;;;;;1.07;0.93;;;;;;;30.02;nan;94718.97;4950023;29;20196;-64
2022/06/21 08:55:41;;;;;;;1.47;1.37;;;;;;;29.78;nan;94714.31;4962116;28;20219;-65
2022/06/21 08:58:46;;;;;;;0.73;0.73;;;;;;;29.83;nan;94705.81;4940107;28;20204;-63
2022/06/21 09:01:31;;;;;;;1.00;1.00;;;;;;;29.55;nan;94697.59;4938160;28;20294;-64
2022/06/21 09:04:18;;;;;;;1.53;1.43;;;;;;;29.25;nan;94702.47;4948374;28;20231;-65
2022/06/21 09:06:54;;;;;;;0.77;0.73;;;;;;;29.51;nan;94689.47;4950302;29;20251;-67
2022/06/21 09:09:42;;;;;;;2.97;1.73;;;;;;;29.68;nan;94696.09;4947357;28;20282;-59
2022/06/21 09:12:18;;;;;;;2.73;1.87;;;;;;;29.92;nan;94688.09;4949171;28;20276;-65
2022/06/21 09:14:50;;;;;;;0.60;0.60;;;;;;;29.73;nan;94691.13;4942842;28;20188;-62
2022/06/21 09:17:39;;;;;;;4.13;2.83;;;;;;;29.58;nan;94686.03;4943066;29;20211;-66
2022/06/21 09:20:06;;;;;;;1.10;1.00;;;;;;;29.90;nan;94689.63;4946197;28;20274;-66
2022/06/21 09:23:12;;;;;;;1.47;1.33;;;;;;;30.24;nan;94677.31;4951958;28;20203;-62
2022/06/21 09:26:01;;;;;;;2.73;2.47;;;;;;;30.16;nan;94686.59;4952777;29;20207;-67
2022/06/21 09:28:37;;;;;;;2.47;1.83;;;;;;;29.84;nan;94691.94;4950083;28;20251;-65
2022/06/21 09:31:23;;;;;;;1.80;1.10;;;;;;;29.65;nan;94683.38;4941634;28;20603;-65
2022/06/21 09:33:58;;;;;;;0.77;0.73;;;;;;;30.15;nan;94678.84;4948386;28;20536;-65
2022/06/21 09:36:38;;;;;;;8.40;2.50;;;;;;;30.52;nan;94666.56;4955051;28;20226;-67
2022/06/21 09:39:30;;;;;;;1.13;1.10;;;;;;;30.56;nan;94666.56;4953566;28;20199;-65
2022/06/21 09:42:34;;;;;;;3.03;0.97;;;;;;;31.00;nan;94663.44;4938923;28;20916;-67
2022/06/21 09:45:26;;;;;;;1.23;1.13;;;;;;;31.10;nan;94670.75;4956263;28;20262;-63
2022/06/21 09:48:21;;;;;;;0.90;0.90;;;;;;;31.15;nan;94662.25;4947686;28;20196;-66
2022/06/21 09:51:09;;;;;;;6.13;2.77;;;;;;;30.97;nan;94670.38;4955080;28;20198;-64
2022/06/21 09:53:47;;;;;;;1.27;1.10;;;;;;;31.30;nan;94661.00;4943715;28;20224;-67
2022/06/21 09:56:24;;;;;;;1.20;0.90;;;;;;;31.64;nan;94656.66;4949825;28;20219;-64
2022/06/21 09:59:05;;;;;;;1.27;1.17;;;;;;;31.97;nan;94658.81;4952285;28;20234;-63
2022/06/21 10:01:41;;;;;;;0.97;0.97;;;;;;;32.01;nan;94662.28;4952628;28;20208;-66
2022/06/21 10:04:37;;;;;;;1.47;1.30;;;;;;;31.97;nan;94645.25;4950804;28;20905;-66
2022/06/21 10:07:24;;;;;;;3.20;2.27;;;;;;;32.27;nan;94631.88;4951718;28;20203;-64
2022/06/21 10:10:20;;;;;;;1.87;1.77;;;;;;;32.60;nan;94650.25;4949413;28;20597;-64
2022/06/21 10:13:26;;;;;;;1.93;1.17;;;;;;;32.35;nan;94657.78;4943279;28;20211;-69
2022/06/21 10:16:23;;;;;;;1.20;1.10;;;;;;;31.38;nan;94651.75;4950695;28;20243;-65
2022/06/21 10:19:00;;;;;;;0.93;0.93;;;;;;;32.62;nan;94653.34;4959199;28;20299;-67
2022/06/21 10:21:56;;;;;;;1.10;1.00;;;;;;;32.66;nan;94643.19;4941249;28;20249;-65
2022/06/21 10:24:47;;;;;;;1.67;1.40;;;;;;;31.88;nan;94658.44;4953703;28;20255;-64
2022/06/21 10:27:17;;;;;;;1.33;1.13;;;;;;;32.21;nan;94660.59;4959431;28;20196;-67
2022/06/21 10:30:11;;;;;;;1.30;1.20;;;;;;;32.81;nan;94654.69;4952055;28;20196;-64
2022/06/21 10:32:50;;;;;;;1.37;1.27;;;;;;;32.58;nan;94660.72;4949617;28;20184;-67
2022/06/21 10:35:26;;;;;;;1.30;1.20;;;;;;;32.26;nan;94673.72;4951794;28;20228;-66
2022/06/21 10:38:11;;;;;;;1.10;1.00;;;;;;;32.74;nan;94676.47;4950442;28;20219;-67
2022/06/21 10:41:01;;;;;;;0.60;0.60;;;;;;;32.63;nan;94676.56;4949710;28;20678;-66
2022/06/21 10:43:40;;;;;;;0.80;0.80;;;;;;;32.77;nan;94662.88;4938712;28;20204;-64
2022/06/21 10:46:21;;;;;;;1.17;1.07;;;;;;;32.94;nan;94674.00;4954308;28;20562;-64
2022/06/21 10:49:07;;;;;;;1.30;1.20;;;;;;;32.74;nan;94677.25;4946467;28;20571;-62
2022/06/21 10:51:58;;;;;;;1.20;1.00;;;;;;;32.99;nan;94670.84;4943252;28;20200;-65
2022/06/21 10:54:43;;;;;;;0.87;0.87;;;;;;;33.12;nan;94658.31;4948574;28;20207;-62
2022/06/21 10:57:19;;;;;;;1.73;1.50;;;;;;;32.73;nan;94664.88;4947423;28;20211;-65
2022/06/21 11:02:54;;;;;;;1.43;1.33;;;;;;;33.02;nan;94659.16;4950348;28;20199;-62
2022/06/21 11:05:27;;;;;;;2.37;1.40;;;;;;;33.04;nan;94652.19;4948645;28;20643;-64
2022/06/21 11:08:15;;;;;;;1.53;0.80;;;;;;;33.01;nan;94663.06;4948010;28;20282;-65
2022/06/21 11:11:24;;;;;;;1.90;1.73;;;;;;;33.68;nan;94665.81;4945543;28;20200;-69
2022/06/21 11:14:15;;;;;;;1.10;1.03;;;;;;;33.76;nan;94668.03;4935396;28;20211;-62
2022/06/21 11:17:30;;;;;;;1.63;1.37;;;;;;;33.76;nan;94669.97;4944939;28;20601;-64
2022/06/21 11:20:07;;;;;;;1.23;1.13;;;;;;;33.62;nan;94664.72;4886631;29;20814;-64
2022/06/21 11:22:51;;;;;;;0.70;0.70;;;;;;;33.70;nan;94674.34;4950224;28;20343;-64
2022/06/21 11:25:45;;;;;;;1.13;1.00;;;;;;;33.77;nan;94674.25;4948022;28;20192;-65
2022/06/21 11:28:50;;;;;;;1.20;1.20;;;;;;;33.83;nan;94669.91;4947712;28;20203;-65
2022/06/21 11:31:49;;;;;;;2.83;1.50;;;;;;;33.72;nan;94666.53;4945434;28;20667;-62
2022/06/21 11:34:44;;;;;;;1.20;1.10;;;;;;;33.65;nan;94674.75;4946800;28;20702;-69
2022/06/21 11:37:20;;;;;;;1.30;1.20;;;;;;;33.78;nan;94669.59;4947706;28;20220;-66
2022/06/21 11:40:18;;;;;;;1.27;1.10;;;;;;;33.28;nan;94669.38;4945849;28;20689;-68
2022/06/21 11:42:55;;;;;;;1.10;1.00;;;;;;;34.02;nan;94671.97;4942895;28;20254;-64
2022/06/21 11:45:47;;;;;;;1.40;1.30;;;;;;;34.30;nan;94666.13;4954299;28;20204;-66
2022/06/21 11:48:45;;;;;;;1.40;1.30;;;;;;;34.13;nan;94664.44;4947444;28;20200;-65
2022/06/21 11:51:23;;;;;;;1.57;1.43;;;;;;;34.31;nan;94656.78;4937884;28;20299;-65
2022/06/21 11:54:03;;;;;;;1.50;1.00;;;;;;;34.25;nan;94654.94;4946939;28;20702;-65
2022/06/21 11:56:42;;;;;;;1.10;1.00;;;;;;;33.94;nan;94646.06;4945743;28;20275;-64
2022/06/21 11:59:24;;;;;;;2.50;1.77;;;;;;;32.94;nan;94657.72;4947342;28;20307;-59
2022/06/21 12:02:01;;;;;;;1.73;1.10;;;;;;;33.10;nan;94649.78;4943926;28;20237;-63
2022/06/21 12:04:53;;;;;;;0.83;0.83;;;;;;;33.39;nan;94661.88;4945759;28;20608;-64
2022/06/21 12:07:32;;;;;;;2.73;1.13;;;;;;;33.96;nan;94645.66;4945482;28;20608;-63
2022/06/21 12:10:02;;;;;;;1.43;1.00;;;;;;;33.27;nan;94648.81;4944665;29;20219;-67
2022/06/21 12:13:17;;;;;;;1.80;1.50;;;;;;;33.49;nan;94644.69;4946010;28;20200;-65
2022/06/21 12:16:05;;;;;;;1.77;1.20;;;;;;;34.17;nan;94654.28;4935744;29;20294;-65
2022/06/21 12:18:35;;;;;;;0.93;0.90;;;;;;;34.26;nan;94640.16;4944055;28;20330;-63
2022/06/21 12:21:07;;;;;;;1.43;1.10;;;;;;;33.23;nan;94637.22;4946803;28;20282;-64
2022/06/21 12:23:44;;;;;;;2.03;1.23;;;;;;;33.72;nan;94642.84;4946513;28;20203;-67
2022/06/21 12:26:16;;;;;;;1.63;1.17;;;;;;;34.05;nan;94638.50;4944586;28;20203;-65
2022/06/21 12:28:44;;;;;;;0.77;0.77;;;;;;;34.45;nan;94637.53;4944737;28;20232;-67
2022/06/21 12:31:24;;;;;;;1.37;1.23;;;;;;;34.58;nan;94641.22;4944956;28;20188;-63
2022/06/21 12:34:15;;;;;;;1.33;1.23;;;;;;;34.40;nan;94631.75;4936521;28;20216;-61
2022/06/21 12:36:47;;;;;;;1.20;1.10;;;;;;;34.48;nan;94627.78;4944675;29;20262;-63
2022/06/21 12:39:28;;;;;;;1.80;1.50;;;;;;;34.47;nan;94627.00;4939592;28;20208;-66
2022/06/21 12:42:25;;;;;;;0.73;0.73;;;;;;;35.12;nan;94619.28;4945469;28;20693;-67
2022/06/21 12:45:23;;;;;;;1.07;1.07;;;;;;;34.67;nan;94625.09;4945232;28;20698;-62
2022/06/21 12:47:50;;;;;;;1.37;1.27;;;;;;;34.86;nan;94626.34;4944242;28;20903;-65
2022/06/21 12:50:29;;;;;;;1.37;1.27;;;;;;;35.66;nan;94620.53;4945063;28;20954;-64
2022/06/21 12:53:25;;;;;;;1.10;1.00;;;;;;;35.69;nan;94627.88;4945564;28;20204;-66
2022/06/21 12:56:10;;;;;;;1.30;1.20;;;;;;;36.03;nan;94625.59;4935266;28;20666;-62
2022/06/21 12:58:55;;;;;;;1.47;1.37;;;;;;;34.58;nan;94630.31;4952804;28;20746;-63
2022/06/21 13:01:40;;;;;;;0.97;0.90;;;;;;;35.24;nan;94621.38;4951586;28;20270;-68